sensor_id;sensor_type;location;lat;lon;timestamp;P1;P2;P0
76661;PMS5003;65579;45.534;6.212;2023-09-19T00:01:05;5;5;
76661;PMS5003;65579;45.534;6.212;2023-09-19T00:03:31;6;4;
76661;PMS5003;65579;45.534;6.212;2023-09-19T00:05:57;5;5;
76661;PMS5003;65579;45.534;6.212;2023-09-19T00:08:22;4;4;
76661;PMS5003;65579;45.534;6.212;2023-09-19T00:10:48;6;6;
76661;PMS5003;65579;45.534;6.212;2023-09-19T00:13:14;7;5;
76661;PMS5003;65579;45.534;6.212;2023-09-19T00:15:40;3;3;
76661;PMS5003;65579;45.534;6.212;2023-09-19T00:18:06;4;4;
76661;PMS5003;65579;45.534;6.212;2023-09-19T00:20:31;3;3;
76661;PMS5003;65579;45.534;6.212;2023-09-19T00:22:57;5;5;
76661;PMS5003;65579;45.534;6.212;2023-09-19T00:25:23;4;4;
76661;PMS5003;65579;45.534;6.212;2023-09-19T00:27:49;5;5;
76661;PMS5003;65579;45.534;6.212;2023-09-19T00:30:15;6;4;
76661;PMS5003;65579;45.534;6.212;2023-09-19T00:32:41;5;5;
76661;PMS5003;65579;45.534;6.212;2023-09-19T00:35:06;3;3;
76661;PMS5003;65579;45.534;6.212;2023-09-19T00:37:32;3;3;
76661;PMS5003;65579;45.534;6.212;2023-09-19T00:39:58;4;2;
76661;PMS5003;65579;45.534;6.212;2023-09-19T00:42:24;3;3;
76661;PMS5003;65579;45.534;6.212;2023-09-19T00:44:50;6;5;
76661;PMS5003;65579;45.534;6.212;2023-09-19T00:47:15;6;6;
76661;PMS5003;65579;45.534;6.212;2023-09-19T00:49:40;7;5;
76661;PMS5003;65579;45.534;6.212;2023-09-19T00:52:05;6;4;
76661;PMS5003;65579;45.534;6.212;2023-09-19T00:54:30;4;4;
76661;PMS5003;65579;45.534;6.212;2023-09-19T00:56:56;5;5;
76661;PMS5003;65579;45.534;6.212;2023-09-19T00:59:21;5;3;
76661;PMS5003;65579;45.534;6.212;2023-09-19T01:01:46;6;5;
76661;PMS5003;65579;45.534;6.212;2023-09-19T01:04:12;5;5;
76661;PMS5003;65579;45.534;6.212;2023-09-19T01:06:38;6;5;
76661;PMS5003;65579;45.534;6.212;2023-09-19T01:09:04;5;5;
76661;PMS5003;65579;45.534;6.212;2023-09-19T01:11:31;5;5;
76661;PMS5003;65579;45.534;6.212;2023-09-19T01:13:57;5;5;
76661;PMS5003;65579;45.534;6.212;2023-09-19T01:16:23;7;5;
76661;PMS5003;65579;45.534;6.212;2023-09-19T01:18:48;2;2;
76661;PMS5003;65579;45.534;6.212;2023-09-19T01:21:15;4;4;
76661;PMS5003;65579;45.534;6.212;2023-09-19T01:23:47;4;4;
76661;PMS5003;65579;45.534;6.212;2023-09-19T01:26:06;5;5;
76661;PMS5003;65579;45.534;6.212;2023-09-19T01:28:30;7;6;
76661;PMS5003;65579;45.534;6.212;2023-09-19T01:30:56;5;5;
76661;PMS5003;65579;45.534;6.212;2023-09-19T01:33:21;5;4;
76661;PMS5003;65579;45.534;6.212;2023-09-19T01:35:47;3;3;
76661;PMS5003;65579;45.534;6.212;2023-09-19T01:38:13;7;5;
76661;PMS5003;65579;45.534;6.212;2023-09-19T01:40:41;7;7;
76661;PMS5003;65579;45.534;6.212;2023-09-19T01:43:09;4;4;
76661;PMS5003;65579;45.534;6.212;2023-09-19T01:45:31;6;4;
76661;PMS5003;65579;45.534;6.212;2023-09-19T01:47:56;9;9;
76661;PMS5003;65579;45.534;6.212;2023-09-19T01:50:24;6;6;
76661;PMS5003;65579;45.534;6.212;2023-09-19T01:52:49;5;5;
76661;PMS5003;65579;45.534;6.212;2023-09-19T01:55:13;7;5;
76661;PMS5003;65579;45.534;6.212;2023-09-19T01:57:40;6;5;
76661;PMS5003;65579;45.534;6.212;2023-09-19T02:00:06;5;5;
76661;PMS5003;65579;45.534;6.212;2023-09-19T02:02:31;4;3;
76661;PMS5003;65579;45.534;6.212;2023-09-19T02:04:56;5;5;
76661;PMS5003;65579;45.534;6.212;2023-09-19T02:07:21;8;7;
76661;PMS5003;65579;45.534;6.212;2023-09-19T02:09:46;6;6;
76661;PMS5003;65579;45.534;6.212;2023-09-19T02:12:11;5;5;
76661;PMS5003;65579;45.534;6.212;2023-09-19T02:14:36;4;4;
76661;PMS5003;65579;45.534;6.212;2023-09-19T02:17:01;7;6;
76661;PMS5003;65579;45.534;6.212;2023-09-19T02:19:26;6;6;
76661;PMS5003;65579;45.534;6.212;2023-09-19T02:21:51;4;4;
76661;PMS5003;65579;45.534;6.212;2023-09-19T02:24:16;5;5;
76661;PMS5003;65579;45.534;6.212;2023-09-19T02:26:41;5;5;
76661;PMS5003;65579;45.534;6.212;2023-09-19T02:29:06;10;10;
76661;PMS5003;65579;45.534;6.212;2023-09-19T02:31:31;5;5;
76661;PMS5003;65579;45.534;6.212;2023-09-19T02:33:57;6;6;
76661;PMS5003;65579;45.534;6.212;2023-09-19T02:36:22;6;6;
76661;PMS5003;65579;45.534;6.212;2023-09-19T02:38:47;5;5;
76661;PMS5003;65579;45.534;6.212;2023-09-19T02:41:12;5;4;
76661;PMS5003;65579;45.534;6.212;2023-09-19T02:46:03;5;5;
76661;PMS5003;65579;45.534;6.212;2023-09-19T02:48:28;5;5;
76661;PMS5003;65579;45.534;6.212;2023-09-19T02:50:55;5;5;
76661;PMS5003;65579;45.534;6.212;2023-09-19T02:53:20;6;6;
76661;PMS5003;65579;45.534;6.212;2023-09-19T02:55:47;5;5;
76661;PMS5003;65579;45.534;6.212;2023-09-19T02:58:12;4;4;
76661;PMS5003;65579;45.534;6.212;2023-09-19T03:00:38;6;6;
76661;PMS5003;65579;45.534;6.212;2023-09-19T03:03:03;5;5;
76661;PMS5003;65579;45.534;6.212;2023-09-19T03:05:29;4;4;
76661;PMS5003;65579;45.534;6.212;2023-09-19T03:07:55;7;5;
76661;PMS5003;65579;45.534;6.212;2023-09-19T03:10:21;8;6;
76661;PMS5003;65579;45.534;6.212;2023-09-19T03:12:46;7;5;
76661;PMS5003;65579;45.534;6.212;2023-09-19T03:15:12;6;5;
76661;PMS5003;65579;45.534;6.212;2023-09-19T03:17:40;7;7;
76661;PMS5003;65579;45.534;6.212;2023-09-19T03:20:04;5;5;
76661;PMS5003;65579;45.534;6.212;2023-09-19T03:22:30;5;4;
76661;PMS5003;65579;45.534;6.212;2023-09-19T03:24:55;6;6;
76661;PMS5003;65579;45.534;6.212;2023-09-19T03:27:21;5;5;
76661;PMS5003;65579;45.534;6.212;2023-09-19T03:29:47;6;6;
76661;PMS5003;65579;45.534;6.212;2023-09-19T03:32:13;6;6;
76661;PMS5003;65579;45.534;6.212;2023-09-19T03:34:39;5;5;
76661;PMS5003;65579;45.534;6.212;2023-09-19T03:37:05;6;6;
76661;PMS5003;65579;45.534;6.212;2023-09-19T03:39:30;6;5;
76661;PMS5003;65579;45.534;6.212;2023-09-19T03:41:56;4;4;
76661;PMS5003;65579;45.534;6.212;2023-09-19T03:44:22;7;5;
76661;PMS5003;65579;45.534;6.212;2023-09-19T03:46:48;5;5;
76661;PMS5003;65579;45.534;6.212;2023-09-19T03:49:14;6;6;
76661;PMS5003;65579;45.534;6.212;2023-09-19T03:51:39;5;4;
76661;PMS5003;65579;45.534;6.212;2023-09-19T03:54:05;7;5;
76661;PMS5003;65579;45.534;6.212;2023-09-19T03:56:31;9;7;
76661;PMS5003;65579;45.534;6.212;2023-09-19T03:58:57;4;4;
76661;PMS5003;65579;45.534;6.212;2023-09-19T04:01:23;6;6;
76661;PMS5003;65579;45.534;6.212;2023-09-19T04:03:48;5;5;
76661;PMS5003;65579;45.534;6.212;2023-09-19T04:06:15;6;5;
76661;PMS5003;65579;45.534;6.212;2023-09-19T04:08:40;7;5;
76661;PMS5003;65579;45.534;6.212;2023-09-19T04:11:06;6;6;
76661;PMS5003;65579;45.534;6.212;2023-09-19T04:13:31;6;6;
76661;PMS5003;65579;45.534;6.212;2023-09-19T04:15:57;6;6;
76661;PMS5003;65579;45.534;6.212;2023-09-19T04:18:23;7;7;
76661;PMS5003;65579;45.534;6.212;2023-09-19T04:20:49;8;8;
76661;PMS5003;65579;45.534;6.212;2023-09-19T04:23:14;11;10;
76661;PMS5003;65579;45.534;6.212;2023-09-19T04:25:40;10;8;
76661;PMS5003;65579;45.534;6.212;2023-09-19T04:28:06;10;10;
76661;PMS5003;65579;45.534;6.212;2023-09-19T04:30:31;8;8;
76661;PMS5003;65579;45.534;6.212;2023-09-19T04:32:57;9;9;
76661;PMS5003;65579;45.534;6.212;2023-09-19T04:35:23;9;9;
76661;PMS5003;65579;45.534;6.212;2023-09-19T04:37:48;10;10;
76661;PMS5003;65579;45.534;6.212;2023-09-19T04:40:14;9;9;
76661;PMS5003;65579;45.534;6.212;2023-09-19T04:42:39;10;9;
76661;PMS5003;65579;45.534;6.212;2023-09-19T04:45:04;10;8;
76661;PMS5003;65579;45.534;6.212;2023-09-19T04:47:29;9;8;
76661;PMS5003;65579;45.534;6.212;2023-09-19T04:49:54;8;8;
76661;PMS5003;65579;45.534;6.212;2023-09-19T04:52:19;10;10;
76661;PMS5003;65579;45.534;6.212;2023-09-19T04:54:45;9;9;
76661;PMS5003;65579;45.534;6.212;2023-09-19T04:57:10;8;8;
76661;PMS5003;65579;45.534;6.212;2023-09-19T04:59:35;9;8;
76661;PMS5003;65579;45.534;6.212;2023-09-19T05:02:01;10;9;
76661;PMS5003;65579;45.534;6.212;2023-09-19T05:04:26;9;9;
76661;PMS5003;65579;45.534;6.212;2023-09-19T05:06:51;10;8;
76661;PMS5003;65579;45.534;6.212;2023-09-19T05:09:17;8;8;
76661;PMS5003;65579;45.534;6.212;2023-09-19T05:11:42;6;6;
76661;PMS5003;65579;45.534;6.212;2023-09-19T05:14:07;8;8;
76661;PMS5003;65579;45.534;6.212;2023-09-19T05:16:32;5;5;
76661;PMS5003;65579;45.534;6.212;2023-09-19T05:18:58;7;6;
76661;PMS5003;65579;45.534;6.212;2023-09-19T05:21:23;6;6;
76661;PMS5003;65579;45.534;6.212;2023-09-19T05:23:48;8;8;
76661;PMS5003;65579;45.534;6.212;2023-09-19T05:26:14;7;7;
76661;PMS5003;65579;45.534;6.212;2023-09-19T05:28:39;7;7;
76661;PMS5003;65579;45.534;6.212;2023-09-19T05:31:05;5;5;
76661;PMS5003;65579;45.534;6.212;2023-09-19T05:33:31;6;6;
76661;PMS5003;65579;45.534;6.212;2023-09-19T05:35:57;7;7;
76661;PMS5003;65579;45.534;6.212;2023-09-19T05:38:23;8;6;
76661;PMS5003;65579;45.534;6.212;2023-09-19T05:40:48;6;6;
76661;PMS5003;65579;45.534;6.212;2023-09-19T05:43:14;6;6;
76661;PMS5003;65579;45.534;6.212;2023-09-19T05:45:40;5;5;
76661;PMS5003;65579;45.534;6.212;2023-09-19T05:48:08;8;6;
76661;PMS5003;65579;45.534;6.212;2023-09-19T05:50:32;7;7;
76661;PMS5003;65579;45.534;6.212;2023-09-19T05:52:58;8;8;
76661;PMS5003;65579;45.534;6.212;2023-09-19T05:55:23;6;6;
76661;PMS5003;65579;45.534;6.212;2023-09-19T05:57:50;5;5;
76661;PMS5003;65579;45.534;6.212;2023-09-19T06:00:15;7;6;
76661;PMS5003;65579;45.534;6.212;2023-09-19T06:02:41;6;6;
76661;PMS5003;65579;45.534;6.212;2023-09-19T06:05:07;6;6;
76661;PMS5003;65579;45.534;6.212;2023-09-19T06:07:32;8;7;
76661;PMS5003;65579;45.534;6.212;2023-09-19T06:09:58;5;5;
76661;PMS5003;65579;45.534;6.212;2023-09-19T06:12:24;6;6;
76661;PMS5003;65579;45.534;6.212;2023-09-19T06:14:50;6;6;
76661;PMS5003;65579;45.534;6.212;2023-09-19T06:17:15;7;6;
76661;PMS5003;65579;45.534;6.212;2023-09-19T06:19:41;6;6;
76661;PMS5003;65579;45.534;6.212;2023-09-19T06:22:07;7;7;
76661;PMS5003;65579;45.534;6.212;2023-09-19T06:24:33;7;7;
76661;PMS5003;65579;45.534;6.212;2023-09-19T06:26:59;6;6;
76661;PMS5003;65579;45.534;6.212;2023-09-19T06:29:24;6;4;
76661;PMS5003;65579;45.534;6.212;2023-09-19T06:31:50;4;4;
76661;PMS5003;65579;45.534;6.212;2023-09-19T06:34:16;5;5;
76661;PMS5003;65579;45.534;6.212;2023-09-19T06:36:42;5;5;
76661;PMS5003;65579;45.534;6.212;2023-09-19T06:39:08;6;6;
76661;PMS5003;65579;45.534;6.212;2023-09-19T06:41:33;5;4;
76661;PMS5003;65579;45.534;6.212;2023-09-19T06:43:59;6;5;
76661;PMS5003;65579;45.534;6.212;2023-09-19T06:46:25;6;6;
76661;PMS5003;65579;45.534;6.212;2023-09-19T06:48:51;3;3;
76661;PMS5003;65579;45.534;6.212;2023-09-19T06:51:17;7;7;
76661;PMS5003;65579;45.534;6.212;2023-09-19T06:53:42;6;4;
76661;PMS5003;65579;45.534;6.212;2023-09-19T06:56:08;5;5;
76661;PMS5003;65579;45.534;6.212;2023-09-19T06:58:34;6;6;
76661;PMS5003;65579;45.534;6.212;2023-09-19T07:01:00;6;6;
76661;PMS5003;65579;45.534;6.212;2023-09-19T07:03:26;6;5;
76661;PMS5003;65579;45.534;6.212;2023-09-19T07:05:51;6;6;
76661;PMS5003;65579;45.534;6.212;2023-09-19T07:08:17;6;6;
76661;PMS5003;65579;45.534;6.212;2023-09-19T07:10:43;7;6;
76661;PMS5003;65579;45.534;6.212;2023-09-19T07:13:09;6;5;
76661;PMS5003;65579;45.534;6.212;2023-09-19T07:15:34;6;6;
76661;PMS5003;65579;45.534;6.212;2023-09-19T07:18:00;7;7;
76661;PMS5003;65579;45.534;6.212;2023-09-19T07:20:26;6;6;
76661;PMS5003;65579;45.534;6.212;2023-09-19T07:22:52;6;6;
76661;PMS5003;65579;45.534;6.212;2023-09-19T07:25:17;10;7;
76661;PMS5003;65579;45.534;6.212;2023-09-19T07:27:43;8;8;
76661;PMS5003;65579;45.534;6.212;2023-09-19T07:30:09;8;8;
76661;PMS5003;65579;45.534;6.212;2023-09-19T07:32:34;7;7;
76661;PMS5003;65579;45.534;6.212;2023-09-19T07:35:01;7;6;
76661;PMS5003;65579;45.534;6.212;2023-09-19T07:37:26;5;5;
76661;PMS5003;65579;45.534;6.212;2023-09-19T07:39:51;5;5;
76661;PMS5003;65579;45.534;6.212;2023-09-19T07:42:17;4;4;
76661;PMS5003;65579;45.534;6.212;2023-09-19T07:44:43;4;4;
76661;PMS5003;65579;45.534;6.212;2023-09-19T07:47:09;6;6;
76661;PMS5003;65579;45.534;6.212;2023-09-19T07:49:35;5;3;
76661;PMS5003;65579;45.534;6.212;2023-09-19T07:52:00;5;5;
76661;PMS5003;65579;45.534;6.212;2023-09-19T07:54:26;5;5;
76661;PMS5003;65579;45.534;6.212;2023-09-19T07:56:52;4;4;
76661;PMS5003;65579;45.534;6.212;2023-09-19T07:59:18;5;5;
76661;PMS5003;65579;45.534;6.212;2023-09-19T08:01:43;5;5;
76661;PMS5003;65579;45.534;6.212;2023-09-19T08:04:09;5;5;
76661;PMS5003;65579;45.534;6.212;2023-09-19T08:06:35;3;3;
76661;PMS5003;65579;45.534;6.212;2023-09-19T08:09:01;4;4;
76661;PMS5003;65579;45.534;6.212;2023-09-19T08:11:27;5;4;
76661;PMS5003;65579;45.534;6.212;2023-09-19T08:13:52;6;6;
76661;PMS5003;65579;45.534;6.212;2023-09-19T08:16:18;6;5;
76661;PMS5003;65579;45.534;6.212;2023-09-19T08:18:46;5;5;
76661;PMS5003;65579;45.534;6.212;2023-09-19T08:21:11;5;5;
76661;PMS5003;65579;45.534;6.212;2023-09-19T08:23:35;5;5;
76661;PMS5003;65579;45.534;6.212;2023-09-19T08:26:02;4;4;
76661;PMS5003;65579;45.534;6.212;2023-09-19T08:28:27;5;4;
76661;PMS5003;65579;45.534;6.212;2023-09-19T08:30:53;6;6;
76661;PMS5003;65579;45.534;6.212;2023-09-19T08:33:19;6;6;
76661;PMS5003;65579;45.534;6.212;2023-09-19T08:35:44;5;5;
76661;PMS5003;65579;45.534;6.212;2023-09-19T08:38:10;5;5;
76661;PMS5003;65579;45.534;6.212;2023-09-19T08:40:36;4;4;
76661;PMS5003;65579;45.534;6.212;2023-09-19T08:43:02;4;4;
76661;PMS5003;65579;45.534;6.212;2023-09-19T08:45:28;4;4;
76661;PMS5003;65579;45.534;6.212;2023-09-19T08:47:56;4;4;
76661;PMS5003;65579;45.534;6.212;2023-09-19T08:50:22;5;5;
76661;PMS5003;65579;45.534;6.212;2023-09-19T08:52:46;4;4;
76661;PMS5003;65579;45.534;6.212;2023-09-19T08:55:11;6;6;
76661;PMS5003;65579;45.534;6.212;2023-09-19T08:57:38;4;4;
76661;PMS5003;65579;45.534;6.212;2023-09-19T09:00:03;4;4;
76661;PMS5003;65579;45.534;6.212;2023-09-19T09:02:28;5;5;
76661;PMS5003;65579;45.534;6.212;2023-09-19T09:04:54;5;5;
76661;PMS5003;65579;45.534;6.212;2023-09-19T09:07:20;6;5;
76661;PMS5003;65579;45.534;6.212;2023-09-19T09:09:46;4;4;
76661;PMS5003;65579;45.534;6.212;2023-09-19T09:12:12;6;5;
76661;PMS5003;65579;45.534;6.212;2023-09-19T09:14:37;6;6;
76661;PMS5003;65579;45.534;6.212;2023-09-19T09:17:03;7;7;
76661;PMS5003;65579;45.534;6.212;2023-09-19T09:19:30;7;7;
76661;PMS5003;65579;45.534;6.212;2023-09-19T09:21:54;8;8;
76661;PMS5003;65579;45.534;6.212;2023-09-19T09:26:46;6;6;
76661;PMS5003;65579;45.534;6.212;2023-09-19T09:29:12;6;6;
76661;PMS5003;65579;45.534;6.212;2023-09-19T09:31:38;6;6;
76661;PMS5003;65579;45.534;6.212;2023-09-19T09:34:03;6;5;
76661;PMS5003;65579;45.534;6.212;2023-09-19T09:36:33;7;7;
76661;PMS5003;65579;45.534;6.212;2023-09-19T09:38:55;5;5;
76661;PMS5003;65579;45.534;6.212;2023-09-19T09:41:21;6;6;
76661;PMS5003;65579;45.534;6.212;2023-09-19T09:43:46;6;6;
76661;PMS5003;65579;45.534;6.212;2023-09-19T09:46:13;5;5;
76661;PMS5003;65579;45.534;6.212;2023-09-19T09:48:38;4;4;
76661;PMS5003;65579;45.534;6.212;2023-09-19T09:51:03;4;4;
76661;PMS5003;65579;45.534;6.212;2023-09-19T09:53:30;2;2;
76661;PMS5003;65579;45.534;6.212;2023-09-19T09:55:59;3;3;
76661;PMS5003;65579;45.534;6.212;2023-09-19T09:58:21;5;5;
76661;PMS5003;65579;45.534;6.212;2023-09-19T10:00:52;5;4;
76661;PMS5003;65579;45.534;6.212;2023-09-19T10:05:38;3;3;
76661;PMS5003;65579;45.534;6.212;2023-09-19T10:10:30;3;3;
76661;PMS5003;65579;45.534;6.212;2023-09-19T10:12:55;2;2;
76661;PMS5003;65579;45.534;6.212;2023-09-19T10:15:21;6;4;
76661;PMS5003;65579;45.534;6.212;2023-09-19T10:17:47;6;4;
76661;PMS5003;65579;45.534;6.212;2023-09-19T10:20:13;3;3;
76661;PMS5003;65579;45.534;6.212;2023-09-19T10:22:38;5;5;
76661;PMS5003;65579;45.534;6.212;2023-09-19T10:25:04;6;5;
76661;PMS5003;65579;45.534;6.212;2023-09-19T10:27:29;5;2;
76661;PMS5003;65579;45.534;6.212;2023-09-19T10:29:55;4;4;
76661;PMS5003;65579;45.534;6.212;2023-09-19T10:32:21;5;5;
76661;PMS5003;65579;45.534;6.212;2023-09-19T10:34:47;3;3;
76661;PMS5003;65579;45.534;6.212;2023-09-19T10:37:12;4;4;
76661;PMS5003;65579;45.534;6.212;2023-09-19T10:39:38;3;3;
76661;PMS5003;65579;45.534;6.212;2023-09-19T10:42:04;4;4;
76661;PMS5003;65579;45.534;6.212;2023-09-19T10:44:30;3;3;
76661;PMS5003;65579;45.534;6.212;2023-09-19T10:46:55;4;4;
76661;PMS5003;65579;45.534;6.212;2023-09-19T10:49:21;3;2;
76661;PMS5003;65579;45.534;6.212;2023-09-19T10:51:47;3;3;
76661;PMS5003;65579;45.534;6.212;2023-09-19T10:54:13;2;2;
76661;PMS5003;65579;45.534;6.212;2023-09-19T10:56:40;2;2;
76661;PMS5003;65579;45.534;6.212;2023-09-19T10:59:05;4;4;
76661;PMS5003;65579;45.534;6.212;2023-09-19T11:06:21;3;3;
76661;PMS5003;65579;45.534;6.212;2023-09-19T11:08:52;3;3;
76661;PMS5003;65579;45.534;6.212;2023-09-19T11:13:38;2;2;
76661;PMS5003;65579;45.534;6.212;2023-09-19T11:16:04;5;5;
76661;PMS5003;65579;45.534;6.212;2023-09-19T11:23:21;3;3;
76661;PMS5003;65579;45.534;6.212;2023-09-19T11:25:47;3;3;
76661;PMS5003;65579;45.534;6.212;2023-09-19T11:30:39;3;3;
76661;PMS5003;65579;45.534;6.212;2023-09-19T11:38:00;3;3;
76661;PMS5003;65579;45.534;6.212;2023-09-19T11:40:21;2;2;
76661;PMS5003;65579;45.534;6.212;2023-09-19T11:42:47;1;1;
76661;PMS5003;65579;45.534;6.212;2023-09-19T11:47:39;2;2;
76661;PMS5003;65579;45.534;6.212;2023-09-19T11:50:04;1;1;
76661;PMS5003;65579;45.534;6.212;2023-09-19T11:52:30;2;2;
76661;PMS5003;65579;45.534;6.212;2023-09-19T11:54:55;1;1;
76661;PMS5003;65579;45.534;6.212;2023-09-19T11:57:21;1;1;
76661;PMS5003;65579;45.534;6.212;2023-09-19T11:59:47;1;1;
76661;PMS5003;65579;45.534;6.212;2023-09-19T12:02:13;2;2;
76661;PMS5003;65579;45.534;6.212;2023-09-19T12:04:39;1;1;
76661;PMS5003;65579;45.534;6.212;2023-09-19T12:07:05;3;2;
76661;PMS5003;65579;45.534;6.212;2023-09-19T12:09:30;2;2;
76661;PMS5003;65579;45.534;6.212;2023-09-19T12:11:55;0;0;
76661;PMS5003;65579;45.534;6.212;2023-09-19T12:14:22;0;0;
76661;PMS5003;65579;45.534;6.212;2023-09-19T12:16:50;2;2;
76661;PMS5003;65579;45.534;6.212;2023-09-19T12:19:18;1;1;
76661;PMS5003;65579;45.534;6.212;2023-09-19T12:21:38;1;1;
76661;PMS5003;65579;45.534;6.212;2023-09-19T12:24:04;2;2;
76661;PMS5003;65579;45.534;6.212;2023-09-19T12:26:30;1;1;
76661;PMS5003;65579;45.534;6.212;2023-09-19T12:28:56;0;0;
76661;PMS5003;65579;45.534;6.212;2023-09-19T12:31:21;2;2;
76661;PMS5003;65579;45.534;6.212;2023-09-19T12:33:47;1;1;
76661;PMS5003;65579;45.534;6.212;2023-09-19T12:36:21;2;2;
76661;PMS5003;65579;45.534;6.212;2023-09-19T12:38:38;1;1;
76661;PMS5003;65579;45.534;6.212;2023-09-19T12:41:04;1;1;
76661;PMS5003;65579;45.534;6.212;2023-09-19T12:43:30;1;1;
76661;PMS5003;65579;45.534;6.212;2023-09-19T12:45:56;1;1;
76661;PMS5003;65579;45.534;6.212;2023-09-19T12:48:22;1;1;
76661;PMS5003;65579;45.534;6.212;2023-09-19T12:55:38;0;0;
76661;PMS5003;65579;45.534;6.212;2023-09-19T12:58:08;1;1;
76661;PMS5003;65579;45.534;6.212;2023-09-19T13:00:32;1;1;
76661;PMS5003;65579;45.534;6.212;2023-09-19T13:05:21;0;0;
76661;PMS5003;65579;45.534;6.212;2023-09-19T13:07:47;2;1;
76661;PMS5003;65579;45.534;6.212;2023-09-19T13:10:13;1;1;
76661;PMS5003;65579;45.534;6.212;2023-09-19T13:12:38;1;1;
76661;PMS5003;65579;45.534;6.212;2023-09-19T13:15:07;1;1;
76661;PMS5003;65579;45.534;6.212;2023-09-19T13:19:55;1;1;
76661;PMS5003;65579;45.534;6.212;2023-09-19T13:24:48;2;1;
76661;PMS5003;65579;45.534;6.212;2023-09-19T13:27:13;0;0;
76661;PMS5003;65579;45.534;6.212;2023-09-19T13:29:38;0;0;
76661;PMS5003;65579;45.534;6.212;2023-09-19T13:32:04;1;1;
76661;PMS5003;65579;45.534;6.212;2023-09-19T13:34:30;1;1;
76661;PMS5003;65579;45.534;6.212;2023-09-19T13:36:55;1;1;
76661;PMS5003;65579;45.534;6.212;2023-09-19T13:39:21;0;0;
76661;PMS5003;65579;45.534;6.212;2023-09-19T13:41:47;1;1;
76661;PMS5003;65579;45.534;6.212;2023-09-19T13:44:13;1;1;
76661;PMS5003;65579;45.534;6.212;2023-09-19T13:46:38;1;1;
76661;PMS5003;65579;45.534;6.212;2023-09-19T13:49:04;0;0;
76661;PMS5003;65579;45.534;6.212;2023-09-19T13:51:30;1;1;
76661;PMS5003;65579;45.534;6.212;2023-09-19T13:53:55;1;1;
76661;PMS5003;65579;45.534;6.212;2023-09-19T13:56:21;1;1;
76661;PMS5003;65579;45.534;6.212;2023-09-19T13:58:47;1;1;
76661;PMS5003;65579;45.534;6.212;2023-09-19T14:01:13;1;1;
76661;PMS5003;65579;45.534;6.212;2023-09-19T14:03:38;2;1;
76661;PMS5003;65579;45.534;6.212;2023-09-19T14:06:04;1;1;
76661;PMS5003;65579;45.534;6.212;2023-09-19T14:08:30;1;1;
76661;PMS5003;65579;45.534;6.212;2023-09-19T14:10:56;2;1;
76661;PMS5003;65579;45.534;6.212;2023-09-19T14:13:21;1;1;
76661;PMS5003;65579;45.534;6.212;2023-09-19T14:15:47;0;0;
76661;PMS5003;65579;45.534;6.212;2023-09-19T14:18:13;0;0;
76661;PMS5003;65579;45.534;6.212;2023-09-19T14:20:38;1;1;
76661;PMS5003;65579;45.534;6.212;2023-09-19T14:23:04;2;1;
76661;PMS5003;65579;45.534;6.212;2023-09-19T14:25:30;1;1;
76661;PMS5003;65579;45.534;6.212;2023-09-19T14:27:55;1;1;
76661;PMS5003;65579;45.534;6.212;2023-09-19T14:30:21;1;1;
76661;PMS5003;65579;45.534;6.212;2023-09-19T14:32:47;2;2;
76661;PMS5003;65579;45.534;6.212;2023-09-19T14:35:13;1;1;
76661;PMS5003;65579;45.534;6.212;2023-09-19T14:37:38;1;1;
76661;PMS5003;65579;45.534;6.212;2023-09-19T14:40:05;2;2;
76661;PMS5003;65579;45.534;6.212;2023-09-19T14:42:30;2;2;
76661;PMS5003;65579;45.534;6.212;2023-09-19T14:44:55;2;1;
76661;PMS5003;65579;45.534;6.212;2023-09-19T14:47:21;3;1;
76661;PMS5003;65579;45.534;6.212;2023-09-19T14:49:47;2;2;
76661;PMS5003;65579;45.534;6.212;2023-09-19T14:52:12;1;1;
76661;PMS5003;65579;45.534;6.212;2023-09-19T14:54:38;2;2;
76661;PMS5003;65579;45.534;6.212;2023-09-19T14:57:04;1;1;
76661;PMS5003;65579;45.534;6.212;2023-09-19T14:59:30;2;1;
76661;PMS5003;65579;45.534;6.212;2023-09-19T15:01:55;3;3;
76661;PMS5003;65579;45.534;6.212;2023-09-19T15:04:21;1;1;
76661;PMS5003;65579;45.534;6.212;2023-09-19T15:06:46;2;2;
76661;PMS5003;65579;45.534;6.212;2023-09-19T15:09:12;2;2;
76661;PMS5003;65579;45.534;6.212;2023-09-19T15:11:38;0;0;
76661;PMS5003;65579;45.534;6.212;2023-09-19T15:14:04;2;2;
76661;PMS5003;65579;45.534;6.212;2023-09-19T15:16:30;0;0;
76661;PMS5003;65579;45.534;6.212;2023-09-19T15:18:55;0;0;
76661;PMS5003;65579;45.534;6.212;2023-09-19T15:21:21;0;0;
76661;PMS5003;65579;45.534;6.212;2023-09-19T15:23:46;2;2;
76661;PMS5003;65579;45.534;6.212;2023-09-19T15:26:13;1;1;
76661;PMS5003;65579;45.534;6.212;2023-09-19T15:28:38;3;2;
76661;PMS5003;65579;45.534;6.212;2023-09-19T15:31:04;0;0;
76661;PMS5003;65579;45.534;6.212;2023-09-19T15:33:29;2;1;
76661;PMS5003;65579;45.534;6.212;2023-09-19T15:38:21;0;0;
76661;PMS5003;65579;45.534;6.212;2023-09-19T15:40:47;1;1;
76661;PMS5003;65579;45.534;6.212;2023-09-19T15:43:12;1;1;
76661;PMS5003;65579;45.534;6.212;2023-09-19T15:45:38;2;2;
76661;PMS5003;65579;45.534;6.212;2023-09-19T15:48:04;1;1;
76661;PMS5003;65579;45.534;6.212;2023-09-19T15:50:30;1;1;
76661;PMS5003;65579;45.534;6.212;2023-09-19T15:52:55;1;1;
76661;PMS5003;65579;45.534;6.212;2023-09-19T15:55:20;0;0;
76661;PMS5003;65579;45.534;6.212;2023-09-19T15:57:46;1;1;
76661;PMS5003;65579;45.534;6.212;2023-09-19T16:00:12;1;1;
76661;PMS5003;65579;45.534;6.212;2023-09-19T16:02:38;1;1;
76661;PMS5003;65579;45.534;6.212;2023-09-19T16:05:03;1;1;
76661;PMS5003;65579;45.534;6.212;2023-09-19T16:07:29;2;2;
76661;PMS5003;65579;45.534;6.212;2023-09-19T16:09:55;2;2;
76661;PMS5003;65579;45.534;6.212;2023-09-19T16:12:20;1;1;
76661;PMS5003;65579;45.534;6.212;2023-09-19T16:14:46;1;1;
76661;PMS5003;65579;45.534;6.212;2023-09-19T16:17:11;1;1;
76661;PMS5003;65579;45.534;6.212;2023-09-19T16:19:37;3;3;
76661;PMS5003;65579;45.534;6.212;2023-09-19T16:22:03;1;1;
76661;PMS5003;65579;45.534;6.212;2023-09-19T16:24:29;2;2;
76661;PMS5003;65579;45.534;6.212;2023-09-19T16:26:54;1;1;
76661;PMS5003;65579;45.534;6.212;2023-09-19T16:29:20;1;1;
76661;PMS5003;65579;45.534;6.212;2023-09-19T16:31:46;1;1;
76661;PMS5003;65579;45.534;6.212;2023-09-19T16:34:11;2;2;
76661;PMS5003;65579;45.534;6.212;2023-09-19T16:36:37;2;2;
76661;PMS5003;65579;45.534;6.212;2023-09-19T16:39:02;1;1;
76661;PMS5003;65579;45.534;6.212;2023-09-19T16:41:28;1;1;
76661;PMS5003;65579;45.534;6.212;2023-09-19T16:43:53;2;1;
76661;PMS5003;65579;45.534;6.212;2023-09-19T16:46:19;4;2;
76661;PMS5003;65579;45.534;6.212;2023-09-19T16:48:45;2;2;
76661;PMS5003;65579;45.534;6.212;2023-09-19T16:51:11;1;1;
76661;PMS5003;65579;45.534;6.212;2023-09-19T16:53:37;2;2;
76661;PMS5003;65579;45.534;6.212;2023-09-19T16:56:02;3;3;
76661;PMS5003;65579;45.534;6.212;2023-09-19T16:58:27;0;0;
76661;PMS5003;65579;45.534;6.212;2023-09-19T17:00:53;1;1;
76661;PMS5003;65579;45.534;6.212;2023-09-19T17:03:19;1;1;
76661;PMS5003;65579;45.534;6.212;2023-09-19T17:05:44;1;1;
76661;PMS5003;65579;45.534;6.212;2023-09-19T17:08:10;2;2;
76661;PMS5003;65579;45.534;6.212;2023-09-19T17:10:36;2;2;
76661;PMS5003;65579;45.534;6.212;2023-09-19T17:13:01;1;1;
76661;PMS5003;65579;45.534;6.212;2023-09-19T17:15:27;2;2;
76661;PMS5003;65579;45.534;6.212;2023-09-19T17:17:52;1;1;
76661;PMS5003;65579;45.534;6.212;2023-09-19T17:22:44;1;1;
76661;PMS5003;65579;45.534;6.212;2023-09-19T17:25:09;4;2;
76661;PMS5003;65579;45.534;6.212;2023-09-19T17:27:35;1;1;